Time;durP1;ratioP1;P1;durP2;ratioP2;P2;SDS_P1;SDS_P2;PMS_P1;PMS_P2;Temp;Humidity;BMP_temperature;BMP_pressure;BME280_temperature;BME280_humidity;BME280_pressure;Samples;Min_cycle;Max_cycle;Signal;HPM_P1;HPM_P2
2022/11/11 00:04:00;;;;;;;307.10;27.08;;;;;;;5.83;68.37;101394.38;10273348;28;20053;-60
2022/11/11 00:09:02;;;;;;;136.27;15.65;;;;;;;5.91;68.47;101390.78;10272029;28;20057;-61
2022/11/11 00:14:03;;;;;;;273.33;28.05;;;;;;;5.99;68.21;101398.44;10275054;28;20069;-60
2022/11/11 00:29:49;;;;;;;72.57;11.10;;;;;;;5.70;68.55;101396.31;10290290;28;20054;-61
2022/11/11 00:40:15;;;;;;;74.93;12.80;;;;;;;5.54;68.25;101413.03;10278614;28;20073;-60
2022/11/11 00:45:17;;;;;;;143.38;13.35;;;;;;;5.34;68.44;101407.28;10281367;28;20046;-60
2022/11/11 00:55:49;;;;;;;432.83;21.90;;;;;;;5.22;68.42;101394.50;10283130;28;20053;-61
2022/11/11 01:00:54;;;;;;;255.63;16.58;;;;;;;5.27;68.72;101369.34;10280839;28;20441;-61
2022/11/11 01:05:59;;;;;;;333.88;16.70;;;;;;;5.29;68.75;101383.16;10276677;28;20134;-60
2022/11/11 01:11:01;;;;;;;473.08;20.30;;;;;;;4.95;68.73;101381.91;10280692;28;20415;-61
2022/11/11 01:16:06;;;;;;;51.50;10.40;;;;;;;4.86;69.40;101387.25;10271878;28;20849;-61
2022/11/11 01:21:14;;;;;;;449.10;24.75;;;;;;;4.96;68.93;101381.94;10291164;28;20567;-60
2022/11/11 01:26:19;;;;;;;307.48;15.02;;;;;;;4.91;68.65;101390.63;10285180;28;20090;-61
2022/11/11 01:31:27;;;;;;;;;;;;;;;4.57;69.49;101396.25;10278089;28;20055;-61
2022/11/11 01:36:29;;;;;;;;;;;;;;;4.69;69.69;101390.06;10287864;28;20027;-60
2022/11/11 01:41:33;;;;;;;276.55;17.50;;;;;;;5.13;68.98;101387.72;10276311;28;20084;-60
2022/11/11 01:46:38;;;;;;;245.40;17.13;;;;;;;5.22;68.34;101381.53;10280273;28;20057;-61
2022/11/11 01:52:07;;;;;;;517.40;22.90;;;;;;;5.08;68.73;101378.28;10278325;28;21084;-61
2022/11/11 01:57:20;;;;;;;321.98;20.50;;;;;;;5.19;68.82;101384.16;10283241;28;20923;-61
2022/11/11 02:02:29;;;;;;;108.22;11.70;;;;;;;5.03;68.99;101406.00;10282067;28;20046;-61
2022/11/11 02:07:33;;;;;;;39.35;9.45;;;;;;;5.05;69.16;101401.66;10290667;28;20054;-62
2022/11/11 02:17:55;;;;;;;77.97;11.48;;;;;;;5.38;68.89;101398.59;10288429;28;20050;-60
2022/11/11 02:23:04;;;;;;;93.78;12.68;;;;;;;5.45;68.76;101393.28;10279593;28;20339;-61
2022/11/11 02:28:07;;;;;;;117.80;11.27;;;;;;;5.43;68.79;101405.41;10286772;28;20051;-61
2022/11/11 02:33:09;;;;;;;92.38;12.25;;;;;;;5.41;68.69;101417.53;10274012;28;20054;-61
2022/11/11 02:38:11;;;;;;;116.53;16.50;;;;;;;5.33;68.76;101440.16;10282507;28;20381;-60
2022/11/11 02:43:13;;;;;;;137.93;16.40;;;;;;;5.36;68.92;101432.34;10278127;28;20051;-61
2022/11/11 02:48:15;;;;;;;254.23;20.63;;;;;;;5.46;68.80;101428.72;10287064;28;20086;-60
2022/11/11 02:53:17;;;;;;;288.85;17.52;;;;;;;5.32;69.04;101435.00;10276851;28;20434;-61
2022/11/11 02:58:18;;;;;;;127.82;14.90;;;;;;;5.47;69.29;101427.00;10271116;28;20050;-61
2022/11/11 03:03:20;;;;;;;370.88;22.15;;;;;;;5.44;69.16;101440.00;10285089;28;20054;-61
2022/11/11 03:08:22;;;;;;;143.48;15.27;;;;;;;5.56;69.16;101439.81;10285018;28;20054;-61
2022/11/11 03:13:24;;;;;;;227.23;21.45;;;;;;;5.69;69.01;101436.16;10278044;28;20042;-61
2022/11/11 03:18:27;;;;;;;323.50;20.02;;;;;;;5.66;68.96;101438.78;10283168;28;20396;-61
2022/11/11 03:23:28;;;;;;;422.05;24.40;;;;;;;5.74;68.90;101436.94;10279280;28;20062;-61
2022/11/11 03:28:30;;;;;;;296.38;18.48;;;;;;;5.71;69.09;101449.09;10281039;28;20054;-61
2022/11/11 03:33:32;;;;;;;549.20;30.30;;;;;;;5.69;68.87;101441.34;10303049;28;20046;-61
2022/11/11 03:38:33;;;;;;;419.50;22.13;;;;;;;5.68;69.22;101447.41;10284492;28;20046;-61
2022/11/11 03:43:35;;;;;;;391.02;23.10;;;;;;;5.73;69.28;101448.22;10287032;28;20050;-61
2022/11/11 03:48:36;;;;;;;358.88;27.17;;;;;;;5.73;69.49;101453.41;10292473;28;20058;-61
2022/11/11 03:53:38;;;;;;;295.67;25.75;;;;;;;5.92;69.18;101464.34;10281435;28;20050;-61
2022/11/11 03:58:40;;;;;;;217.82;17.85;;;;;;;5.83;69.38;101465.34;10307856;28;20046;-61
2022/11/11 04:30:23;;;;;;;170.98;20.60;;;;;;;5.94;68.91;101441.81;10279114;28;20050;-60
2022/11/11 04:35:25;;;;;;;251.20;24.95;;;;;;;5.78;68.47;101454.16;10285639;28;20065;-61
2022/11/11 04:45:47;;;;;;;316.55;30.33;;;;;;;5.58;69.43;101443.25;10280334;28;20047;-61
2022/11/11 04:50:49;;;;;;;130.63;16.73;;;;;;;5.64;69.34;101443.16;10271672;28;20047;-61
2022/11/11 05:03:14;;;;;;;115.68;15.50;;;;;;;5.54;69.25;101444.16;10277649;28;20047;-61
2022/11/11 05:12:01;;;;;;;160.35;19.00;;;;;;;5.50;69.55;101439.91;10283012;28;20050;-61
2022/11/11 05:22:35;;;;;;;150.88;17.88;;;;;;;5.13;69.96;101457.72;10292389;28;20050;-61
2022/11/11 05:27:37;;;;;;;186.13;18.42;;;;;;;5.36;69.53;101462.59;10284528;28;20055;-61
2022/11/11 05:32:39;;;;;;;83.97;12.00;;;;;;;5.50;69.73;101460.66;10271397;28;20349;-61
2022/11/11 05:37:41;;;;;;;161.40;16.73;;;;;;;5.49;69.31;101466.75;10272482;28;20503;-61
2022/11/11 05:42:43;;;;;;;305.92;15.95;;;;;;;5.21;69.77;101473.19;10280304;28;20054;-61
2022/11/11 05:47:53;;;;;;;337.20;17.67;;;;;;;4.93;70.36;101493.44;10280253;28;20141;-61
2022/11/11 05:52:55;;;;;;;265.98;16.35;;;;;;;4.92;70.38;101489.13;10276754;28;20411;-61
2022/11/11 05:57:57;;;;;;;224.13;18.85;;;;;;;5.20;70.59;101497.41;10293145;28;20137;-61
2022/11/11 06:03:03;;;;;;;146.30;18.20;;;;;;;5.38;70.26;101489.38;10276021;28;20408;-61
2022/11/11 06:08:05;;;;;;;173.00;17.42;;;;;;;5.25;70.02;101500.78;10276095;28;20146;-62
2022/11/11 06:13:09;;;;;;;479.83;25.55;;;;;;;5.36;70.02;101498.94;10284716;28;20042;-61
2022/11/11 06:18:10;;;;;;;494.02;23.83;;;;;;;5.40;69.71;101495.41;10274624;28;20046;-61
2022/11/11 06:23:12;;;;;;;557.47;27.88;;;;;;;5.40;69.42;101509.25;10284730;28;20064;-61
2022/11/11 06:28:15;;;;;;;382.13;16.55;;;;;;;5.27;69.72;101517.19;10289679;28;20526;-62
2022/11/11 06:33:18;;;;;;;257.63;14.30;;;;;;;5.39;69.59;101514.47;10277256;28;20047;-61
2022/11/11 06:38:19;;;;;;;177.43;15.63;;;;;;;5.26;69.29;101516.34;10280548;28;20051;-61
2022/11/11 06:43:21;;;;;;;205.40;15.18;;;;;;;5.33;69.45;101524.94;10284636;28;20047;-61
2022/11/11 06:48:26;;;;;;;158.20;12.27;;;;;;;5.39;69.42;101524.84;10286105;28;20046;-61
2022/11/11 06:53:28;;;;;;;314.40;19.25;;;;;;;5.31;68.88;101524.09;10282305;28;20046;-61
2022/11/11 06:58:30;;;;;;;198.23;12.43;;;;;;;5.09;69.19;101530.38;10284426;28;20518;-61
2022/11/11 07:03:32;;;;;;;344.05;21.15;;;;;;;4.91;69.29;101531.47;10283893;28;20039;-62
2022/11/11 07:08:34;;;;;;;418.02;21.98;;;;;;;4.93;69.55;101534.91;10269184;28;20050;-61
2022/11/11 07:13:36;;;;;;;258.95;16.85;;;;;;;5.17;69.44;101544.13;10280803;28;20054;-61
2022/11/11 07:18:37;;;;;;;275.63;14.00;;;;;;;5.38;69.27;101551.66;10292069;28;20057;-61
2022/11/11 07:23:39;;;;;;;411.75;18.85;;;;;;;5.37;68.96;101555.97;10284964;28;20058;-63
2022/11/11 07:28:41;;;;;;;286.92;14.82;;;;;;;5.30;69.14;101556.94;10284029;28;20061;-62
2022/11/11 07:33:42;;;;;;;315.75;17.02;;;;;;;5.42;69.33;101553.31;10281500;28;20831;-62
2022/11/11 07:38:44;;;;;;;365.48;20.98;;;;;;;5.55;69.34;101560.91;10274522;28;20043;-61
2022/11/11 07:43:46;;;;;;;355.63;15.55;;;;;;;5.53;68.85;101567.03;10287760;28;20452;-61
2022/11/11 07:48:47;;;;;;;197.23;13.15;;;;;;;5.53;69.20;101569.63;10274593;28;20047;-61
2022/11/11 07:53:49;;;;;;;567.30;22.20;;;;;;;5.50;68.94;101574.84;10276645;28;20050;-61
2022/11/11 07:58:51;;;;;;;239.95;16.48;;;;;;;5.39;69.41;101581.91;10285781;28;20097;-61
2022/11/11 08:03:52;;;;;;;290.35;18.48;;;;;;;5.50;69.17;101587.81;10279956;28;20407;-60
2022/11/11 08:08:54;;;;;;;616.67;25.55;;;;;;;5.58;69.07;101593.75;10282343;28;20503;-61
2022/11/11 08:13:56;;;;;;;238.48;12.00;;;;;;;5.60;68.62;101586.81;10274596;28;20526;-61
2022/11/11 08:18:57;;;;;;;185.35;12.95;;;;;;;5.57;69.00;101598.09;10280747;28;20055;-61
2022/11/11 08:23:59;;;;;;;156.35;10.80;;;;;;;5.46;68.60;101604.28;10274427;28;20058;-60
2022/11/11 08:29:21;;;;;;;157.32;12.13;;;;;;;5.36;68.67;101598.38;10280764;28;20177;-61
2022/11/11 08:34:22;;;;;;;130.38;10.45;;;;;;;5.37;68.67;101599.25;10295476;28;20042;-61
2022/11/11 08:39:24;;;;;;;249.68;12.80;;;;;;;5.41;68.57;101587.94;10293326;28;20058;-61
2022/11/11 08:44:26;;;;;;;68.40;7.43;;;;;;;5.54;68.71;101587.75;10289460;28;20051;-61
2022/11/11 08:49:27;;;;;;;222.07;13.65;;;;;;;5.84;68.38;101583.03;10286994;28;20070;-61
2022/11/11 08:54:29;;;;;;;419.27;18.00;;;;;;;5.68;68.34;101582.38;10292412;28;20055;-61
2022/11/11 08:59:31;;;;;;;391.60;17.67;;;;;;;5.59;68.39;101587.72;10280338;28;20058;-60
2022/11/11 09:04:32;;;;;;;205.10;12.55;;;;;;;5.83;68.40;101583.91;10283071;28;20054;-61
2022/11/11 09:09:54;;;;;;;391.70;17.08;;;;;;;5.96;68.03;101578.50;10283180;28;20050;-61
2022/11/11 09:14:56;;;;;;;188.63;16.92;;;;;;;6.07;68.32;101576.63;10285012;28;20430;-61
2022/11/11 09:19:57;;;;;;;14.45;7.90;;;;;;;6.36;68.33;101581.38;10269640;28;20504;-61
2022/11/11 09:24:59;;;;;;;114.07;10.85;;;;;;;6.67;67.74;101581.72;10268932;28;20503;-61
2022/11/11 09:30:01;;;;;;;26.40;8.52;;;;;;;6.93;67.26;101582.13;10274441;28;20518;-61
2022/11/11 09:35:03;;;;;;;170.20;11.05;;;;;;;7.01;66.28;101593.22;10281974;28;20073;-61
2022/11/11 09:40:06;;;;;;;235.98;14.60;;;;;;;6.99;67.16;101597.59;10273721;28;20138;-62
2022/11/11 09:45:13;;;;;;;370.58;22.00;;;;;;;7.23;66.33;101596.25;10273130;28;20054;-62
2022/11/11 09:50:22;;;;;;;323.13;21.60;;;;;;;6.95;66.25;101596.81;10264876;28;20061;-62
2022/11/11 09:55:30;;;;;;;305.38;14.07;;;;;;;7.15;66.60;101594.69;10268410;28;20078;-62
2022/11/11 10:00:36;;;;;;;249.55;16.73;;;;;;;7.36;66.08;101597.75;10267279;28;20050;-62
2022/11/11 10:05:54;;;;;;;87.30;13.35;;;;;;;7.19;66.40;101598.06;10283425;28;20050;-62
2022/11/11 10:11:00;;;;;;;446.73;20.88;;;;;;;7.26;66.17;101598.81;10267538;28;20050;-62
2022/11/11 10:16:16;;;;;;;174.23;15.32;;;;;;;6.93;66.39;101593.38;10277284;28;20051;-62
2022/11/11 10:21:24;;;;;;;298.13;18.90;;;;;;;7.06;66.63;101594.00;10266842;28;20440;-63
2022/11/11 10:26:43;;;;;;;62.75;17.48;;;;;;;7.14;66.87;101592.97;10282537;28;20219;-62
2022/11/11 10:31:56;;;;;;;77.22;13.80;;;;;;;7.29;66.53;101598.75;10265055;28;20054;-62
2022/11/11 10:36:59;;;;;;;208.32;18.15;;;;;;;7.20;66.50;101597.22;10268403;28;20062;-62
2022/11/11 10:42:01;;;;;;;198.07;19.00;;;;;;;7.28;66.80;101597.03;10269109;28;20050;-62
2022/11/11 10:47:28;;;;;;;205.23;21.10;;;;;;;7.57;66.33;101595.56;10271143;28;20050;-62
2022/11/11 10:52:38;;;;;;;88.82;15.75;;;;;;;7.69;66.23;101595.28;10289077;28;20961;-62
2022/11/11 10:58:14;;;;;;;175.23;17.90;;;;;;;7.74;65.57;101598.66;10272775;28;20121;-62
2022/11/11 11:03:21;;;;;;;204.77;25.00;;;;;;;7.98;65.59;101586.81;10265188;28;20507;-62
2022/11/11 11:08:30;;;;;;;79.00;16.27;;;;;;;8.09;65.26;101579.63;10273924;28;20050;-62
2022/11/11 11:13:52;;;;;;;138.00;19.50;;;;;;;7.91;65.04;101577.47;10278842;28;20050;-62
2022/11/11 11:19:14;;;;;;;89.78;16.20;;;;;;;7.81;65.06;101563.75;10279786;28;20055;-62
2022/11/11 11:24:31;;;;;;;111.43;20.05;;;;;;;7.76;65.71;101559.56;10261562;28;20057;-62
2022/11/11 11:29:38;;;;;;;32.20;15.15;;;;;;;7.91;65.93;101559.22;10277220;28;20047;-62
2022/11/11 11:34:46;;;;;;;36.75;15.63;;;;;;;8.19;65.24;101560.31;10263938;28;20057;-63
2022/11/11 11:39:57;;;;;;;60.72;20.27;;;;;;;8.07;65.19;101562.31;10280482;28;20055;-62
2022/11/11 11:45:17;;;;;;;;;;;;;;;7.65;66.34;101562.41;10282798;28;20051;-62
2022/11/11 11:50:46;;;;;;;41.90;18.55;;;;;;;7.85;65.83;101552.38;10267268;28;19933;-62
2022/11/11 11:56:33;;;;;;;37.97;19.08;;;;;;;8.17;65.24;101550.81;10267066;28;20069;-62
2022/11/11 12:01:46;;;;;;;56.95;21.27;;;;;;;8.33;64.55;101549.53;10273905;28;20196;-62
2022/11/11 12:07:00;;;;;;;30.17;16.90;;;;;;;8.45;64.75;101538.81;10269225;28;20046;-62
2022/11/11 12:12:10;;;;;;;31.60;18.65;;;;;;;8.85;63.94;101544.72;10265838;28;20101;-63
2022/11/11 12:17:43;;;;;;;40.53;22.10;;;;;;;8.85;64.35;101542.94;10277295;28;20061;-63
2022/11/11 12:22:55;;;;;;;32.03;20.52;;;;;;;8.55;64.63;101540.28;10289872;28;20057;-63
2022/11/11 12:28:33;;;;;;;34.38;21.00;;;;;;;8.38;64.99;101534.66;10277857;28;20423;-63
2022/11/11 12:34:05;;;;;;;44.45;24.88;;;;;;;8.50;64.96;101535.22;10278964;28;20081;-63
2022/11/11 12:39:31;;;;;;;38.50;21.33;;;;;;;8.41;64.69;101521.53;10293223;28;20059;-63
2022/11/11 12:44:48;;;;;;;37.08;22.67;;;;;;;8.25;65.48;101522.81;10277955;28;20519;-63
2022/11/11 12:50:01;;;;;;;39.85;23.98;;;;;;;8.04;66.16;101517.19;10272982;28;20065;-63
2022/11/11 12:55:17;;;;;;;34.95;23.00;;;;;;;8.07;66.32;101523.22;10284452;28;20123;-63
2022/11/11 13:00:24;;;;;;;27.75;19.50;;;;;;;8.14;66.58;101520.47;10280144;28;20059;-63
2022/11/11 13:05:32;;;;;;;30.25;21.15;;;;;;;8.24;66.11;101506.31;10282233;28;20049;-63
2022/11/11 13:11:12;;;;;;;29.60;20.80;;;;;;;8.20;66.33;101509.06;10297622;28;20141;-63
2022/11/11 13:16:18;;;;;;;29.25;18.65;;;;;;;8.38;65.96;101501.63;10282710;28;20047;-63
2022/11/11 13:21:54;;;;;;;29.75;20.65;;;;;;;8.43;66.52;101517.13;10289001;28;20055;-63
2022/11/11 13:27:03;;;;;;;30.33;22.02;;;;;;;8.51;66.81;101525.59;10277314;28;20051;-63
2022/11/11 13:32:11;;;;;;;35.00;21.20;;;;;;;8.78;66.43;101519.66;10279695;28;20057;-63
2022/11/11 13:37:27;;;;;;;28.05;19.52;;;;;;;8.77;66.33;101512.75;10291776;28;20046;-63
2022/11/11 13:42:38;;;;;;;26.52;17.52;;;;;;;8.85;66.01;101518.63;10284574;28;20058;-63
2022/11/11 13:47:45;;;;;;;26.30;18.02;;;;;;;9.08;65.54;101526.63;10283156;28;20054;-63
2022/11/11 13:53:02;;;;;;;25.65;18.38;;;;;;;9.27;65.63;101524.34;10267809;28;20051;-63
2022/11/11 13:58:06;;;;;;;27.02;17.92;;;;;;;9.49;65.21;101523.69;10281508;28;20137;-63
2022/11/11 14:03:19;;;;;;;29.90;18.98;;;;;;;9.42;65.22;101524.75;10269959;28;21065;-63
2022/11/11 14:08:46;;;;;;;27.88;19.02;;;;;;;9.37;65.26;101517.97;10275714;28;20156;-64
2022/11/11 14:13:48;;;;;;;25.65;18.42;;;;;;;9.47;65.38;101516.78;10281632;28;20054;-62
2022/11/11 14:18:50;;;;;;;24.65;15.07;;;;;;;9.48;65.10;101510.69;10278480;28;20057;-62
2022/11/11 14:23:53;;;;;;;24.60;15.45;;;;;;;9.55;65.04;101505.22;10293108;28;20090;-63
2022/11/11 14:29:02;;;;;;;24.45;16.42;;;;;;;9.60;64.85;101495.50;10280420;28;20047;-63
2022/11/11 14:34:45;;;;;;;24.92;15.63;;;;;;;9.53;64.81;101491.34;10270964;28;20393;-63
2022/11/11 14:39:51;;;;;;;20.17;15.35;;;;;;;9.60;64.97;101492.03;10273978;28;20054;-63
2022/11/11 14:44:53;;;;;;;25.83;16.83;;;;;;;9.53;65.17;101485.25;10277077;28;20054;-63
2022/11/11 14:49:55;;;;;;;23.80;16.17;;;;;;;9.46;65.34;101495.03;10293349;28;20466;-63
2022/11/11 14:55:00;;;;;;;23.10;15.00;;;;;;;9.48;65.51;101489.78;10270705;28;20050;-63
2022/11/11 15:00:24;;;;;;;21.80;14.15;;;;;;;9.38;65.73;101499.63;10274420;28;20042;-63
2022/11/11 15:05:42;;;;;;;21.13;15.27;;;;;;;9.17;66.12;101491.59;10286959;28;20060;-63
2022/11/11 15:11:03;;;;;;;24.35;15.40;;;;;;;9.01;66.46;101485.97;10280133;28;20054;-63
2022/11/11 15:16:29;;;;;;;20.23;13.90;;;;;;;8.86;66.37;101475.97;10271601;28;20054;-63
2022/11/11 15:21:35;;;;;;;24.50;16.55;;;;;;;8.71;66.91;101471.16;10273321;28;20314;-62
2022/11/11 15:26:54;;;;;;;24.15;15.65;;;;;;;8.58;66.94;101477.63;10262854;28;20066;-63
2022/11/11 15:32:07;;;;;;;30.27;16.45;;;;;;;8.44;67.31;101482.34;10276446;28;20054;-63
2022/11/11 15:37:16;;;;;;;25.15;15.07;;;;;;;8.36;67.30;101479.97;10272666;28;20046;-63
2022/11/11 15:42:28;;;;;;;23.30;15.18;;;;;;;8.24;67.64;101480.25;10278472;28;20318;-63
2022/11/11 15:47:35;;;;;;;22.95;14.45;;;;;;;8.16;67.92;101473.53;10264708;28;20794;-62
2022/11/11 15:52:37;;;;;;;24.00;15.82;;;;;;;8.03;67.84;101476.44;10277312;28;20279;-62
2022/11/11 15:57:38;;;;;;;36.30;23.13;;;;;;;7.91;68.08;101471.53;10273912;28;20047;-63
2022/11/11 16:02:40;;;;;;;33.15;18.02;;;;;;;7.79;68.08;101471.78;10263209;28;20061;-64
2022/11/11 16:07:44;;;;;;;32.80;20.17;;;;;;;7.65;68.25;101465.22;10270988;28;20050;-63
2022/11/11 16:12:57;;;;;;;42.17;22.20;;;;;;;7.44;68.70;101471.78;10263423;28;20054;-62
2022/11/11 16:18:04;;;;;;;35.15;19.75;;;;;;;7.40;68.92;101483.13;10277499;28;20046;-63
2022/11/11 16:23:07;;;;;;;36.45;21.25;;;;;;;7.33;68.83;101486.75;10266368;28;20073;-63
2022/11/11 16:28:11;;;;;;;29.08;18.17;;;;;;;7.30;68.65;101492.03;10265642;28;20050;-63
2022/11/11 16:33:25;;;;;;;35.22;21.77;;;;;;;7.13;69.41;101494.13;10262264;28;20394;-62
2022/11/11 16:38:32;;;;;;;33.33;18.98;;;;;;;7.11;69.05;101493.31;10293871;28;20470;-62
2022/11/11 16:43:44;;;;;;;28.55;18.20;;;;;;;6.95;69.53;101500.56;10260012;28;20090;-62
2022/11/11 16:48:48;;;;;;;28.48;18.58;;;;;;;6.90;69.37;101496.31;10278723;28;20558;-62
2022/11/11 16:54:09;;;;;;;28.20;17.23;;;;;;;6.79;69.70;101503.50;10277480;28;20454;-61
2022/11/11 16:59:17;;;;;;;28.73;18.70;;;;;;;6.73;69.41;101504.50;10276784;28;20057;-61
2022/11/11 17:04:19;;;;;;;30.45;19.10;;;;;;;6.67;69.44;101511.53;10277414;28;20789;-61
2022/11/11 17:09:37;;;;;;;45.90;23.92;;;;;;;6.52;69.63;101512.66;10302251;28;20054;-61
2022/11/11 17:14:39;;;;;;;33.92;21.80;;;;;;;6.42;69.64;101516.31;10274598;28;20050;-61
2022/11/11 17:19:40;;;;;;;24.65;17.23;;;;;;;6.40;69.70;101512.03;10284343;28;20438;-62
2022/11/11 17:24:42;;;;;;;29.42;18.42;;;;;;;6.35;69.67;101518.16;10270552;28;20050;-62
2022/11/11 17:29:44;;;;;;;34.17;19.70;;;;;;;6.30;69.72;101513.94;10269936;28;20055;-62
2022/11/11 17:34:46;;;;;;;41.17;22.02;;;;;;;6.26;69.65;101520.06;10273198;28;20046;-61
2022/11/11 17:39:47;;;;;;;40.78;23.45;;;;;;;6.21;69.71;101516.66;10266983;28;20070;-62
2022/11/11 17:44:49;;;;;;;39.70;22.52;;;;;;;6.12;69.79;101515.06;10268312;28;20047;-62
2022/11/11 17:49:51;;;;;;;44.97;24.60;;;;;;;6.10;69.79;101503.81;10288860;28;20055;-62
2022/11/11 17:54:57;;;;;;;44.47;24.58;;;;;;;6.13;69.67;101516.78;10274544;28;20124;-62
2022/11/11 17:59:59;;;;;;;32.00;19.55;;;;;;;6.21;69.60;101522.72;10277001;28;20057;-62
2022/11/11 18:05:01;;;;;;;125.32;28.92;;;;;;;6.31;69.30;101523.44;10276150;28;20063;-61
2022/11/11 18:10:03;;;;;;;446.35;33.40;;;;;;;6.19;69.68;101524.47;10270775;28;20050;-62
2022/11/11 18:15:06;;;;;;;368.92;36.17;;;;;;;6.08;69.73;101521.19;10280260;28;20199;-62
2022/11/11 18:20:08;;;;;;;262.40;29.23;;;;;;;5.91;69.57;101530.13;10272665;28;20495;-62
2022/11/11 18:25:10;;;;;;;275.77;30.17;;;;;;;5.68;69.67;101530.47;10274802;28;20065;-61
2022/11/11 18:30:12;;;;;;;25.48;14.23;;;;;;;5.60;69.73;101540.09;10286915;28;20058;-62
2022/11/11 18:35:16;;;;;;;24.05;15.27;;;;;;;5.52;69.76;101536.75;10278635;28;20061;-61
2022/11/11 18:40:17;;;;;;;38.20;18.10;;;;;;;5.52;69.72;101531.56;10276184;28;20046;-61
2022/11/11 18:45:19;;;;;;;38.45;19.92;;;;;;;5.51;69.62;101538.47;10274556;28;20055;-61
2022/11/11 18:50:22;;;;;;;119.47;27.98;;;;;;;5.55;69.49;101537.56;10289492;28;20050;-61
2022/11/11 18:55:23;;;;;;;118.75;18.83;;;;;;;5.62;69.17;101545.25;10266097;28;20058;-62
2022/11/11 19:00:25;;;;;;;339.63;41.28;;;;;;;5.68;69.35;101548.63;10268914;28;20217;-62
2022/11/11 19:05:27;;;;;;;83.03;26.42;;;;;;;5.72;69.40;101544.25;10277114;28;20046;-62
2022/11/11 19:10:28;;;;;;;32.90;20.08;;;;;;;5.89;69.47;101552.66;10298206;28;20054;-62
2022/11/11 19:15:30;;;;;;;35.85;20.58;;;;;;;6.09;69.04;101554.06;10267978;28;20062;-62
2022/11/11 19:20:32;;;;;;;42.30;23.17;;;;;;;6.24;68.88;101571.16;10266716;28;20055;-61
2022/11/11 19:25:34;;;;;;;104.68;28.77;;;;;;;6.33;68.89;101579.69;10269705;28;20058;-61
2022/11/11 19:30:36;;;;;;;134.35;28.70;;;;;;;6.49;68.84;101574.25;10286834;28;20419;-61
2022/11/11 19:35:38;;;;;;;483.58;43.38;;;;;;;6.64;68.87;101572.25;10269740;28;20054;-61
2022/11/11 19:40:39;;;;;;;536.00;39.47;;;;;;;6.76;69.16;101568.56;10274757;28;20042;-60
2022/11/11 19:45:41;;;;;;;239.60;37.38;;;;;;;6.87;68.67;101569.22;10273150;28;20058;-61
2022/11/11 19:50:43;;;;;;;405.15;41.13;;;;;;;6.87;68.56;101559.69;10279715;28;20073;-60
2022/11/11 19:55:59;;;;;;;315.13;41.65;;;;;;;6.81;68.69;101570.22;10283337;28;20747;-60
2022/11/11 20:01:07;;;;;;;596.20;40.40;;;;;;;6.67;69.07;101574.81;10279958;28;20085;-61
2022/11/11 20:06:21;;;;;;;730.70;53.08;;;;;;;6.43;69.86;101589.94;10273906;28;20464;-61
2022/11/11 20:11:25;;;;;;;549.38;45.78;;;;;;;6.46;69.82;101595.09;10283488;28;20495;-61
2022/11/11 20:16:26;;;;;;;597.42;45.67;;;;;;;6.55;69.69;101606.16;10271460;28;20498;-61
2022/11/11 20:21:29;;;;;;;486.73;40.47;;;;;;;6.40;69.71;101601.25;10286369;28;20621;-61
2022/11/11 20:26:30;;;;;;;375.40;41.20;;;;;;;6.35;69.88;101613.44;10275687;28;20054;-61
2022/11/11 20:31:32;;;;;;;365.27;38.78;;;;;;;6.44;69.68;101609.84;10273978;28;20650;-61
2022/11/11 20:36:34;;;;;;;391.45;38.60;;;;;;;6.50;69.47;101613.22;10292926;28;20495;-61
2022/11/11 20:41:36;;;;;;;472.67;49.10;;;;;;;6.51;69.18;101607.09;10292072;28;20077;-61
2022/11/11 20:46:38;;;;;;;340.98;28.75;;;;;;;6.49;69.61;101608.03;10289649;28;20042;-61
2022/11/11 20:51:40;;;;;;;666.85;33.95;;;;;;;6.48;69.06;101606.31;10296598;28;20405;-61
2022/11/11 20:56:42;;;;;;;774.75;36.95;;;;;;;6.27;69.29;101607.50;10286319;28;20054;-61
2022/11/11 21:01:43;;;;;;;834.50;64.43;;;;;;;6.02;69.74;101617.38;10286353;28;20628;-61
2022/11/11 21:06:45;;;;;;;472.30;37.22;;;;;;;6.04;70.11;101613.00;10283440;28;20364;-61
2022/11/11 21:11:47;;;;;;;325.40;23.92;;;;;;;6.17;69.69;101609.38;10281641;28;20451;-61
2022/11/11 21:16:48;;;;;;;321.75;32.40;;;;;;;6.10;69.81;101614.69;10270366;28;20491;-61
2022/11/11 21:21:50;;;;;;;629.80;39.15;;;;;;;6.08;69.80;101616.44;10279882;28;20059;-61
2022/11/11 21:26:52;;;;;;;618.65;33.13;;;;;;;6.10;69.46;101618.13;10281173;28;20072;-62
2022/11/11 21:31:54;;;;;;;333.17;30.40;;;;;;;5.90;69.86;101611.53;10278822;28;20058;-61
2022/11/11 21:36:56;;;;;;;516.28;37.95;;;;;;;5.74;69.94;101610.00;10289555;28;20046;-60
2022/11/11 21:41:58;;;;;;;345.27;34.63;;;;;;;5.92;70.13;101605.41;10276594;28;20055;-61
2022/11/11 21:46:59;;;;;;;342.65;25.67;;;;;;;5.71;69.86;101610.03;10273827;28;20073;-61
2022/11/11 21:52:01;;;;;;;341.73;25.98;;;;;;;5.68;70.16;101604.88;10286306;28;20061;-61
2022/11/11 21:57:02;;;;;;;504.90;33.13;;;;;;;5.62;70.23;101608.41;10289793;28;20499;-61
2022/11/11 22:02:04;;;;;;;390.45;27.17;;;;;;;5.50;70.37;101603.38;10279128;28;20046;-61
2022/11/11 22:07:06;;;;;;;566.95;34.80;;;;;;;5.57;70.29;101596.38;10273104;28;20065;-61
2022/11/11 22:12:08;;;;;;;392.05;26.77;;;;;;;5.58;70.34;101606.75;10280690;28;20249;-61
2022/11/11 22:17:10;;;;;;;518.28;30.38;;;;;;;5.34;70.38;101614.81;10277571;28;20509;-61
2022/11/11 22:22:11;;;;;;;243.35;19.73;;;;;;;5.23;70.79;101608.88;10281040;28;20057;-62
2022/11/11 22:27:13;;;;;;;189.20;18.38;;;;;;;5.41;70.89;101614.72;10273780;28;20058;-61
2022/11/11 22:32:14;;;;;;;259.30;18.23;;;;;;;5.69;70.60;101602.28;10281432;28;20054;-62
2022/11/11 22:37:16;;;;;;;416.77;19.10;;;;;;;5.55;69.82;101599.84;10276349;28;20043;-62
2022/11/11 22:42:18;;;;;;;503.77;26.05;;;;;;;5.26;70.21;101603.69;10286954;28;20066;-61
2022/11/11 22:47:19;;;;;;;655.22;29.58;;;;;;;5.06;70.85;101600.47;10273888;28;20042;-62
2022/11/11 22:52:21;;;;;;;724.58;36.83;;;;;;;5.13;71.01;101599.50;10280541;28;20639;-62
2022/11/11 22:57:24;;;;;;;684.55;39.83;;;;;;;5.29;70.74;101603.63;10280671;28;20050;-63
2022/11/11 23:02:26;;;;;;;245.35;20.05;;;;;;;5.36;70.66;101611.34;10275780;28;20042;-62
2022/11/11 23:07:28;;;;;;;447.58;31.40;;;;;;;5.54;70.70;101607.66;10290232;28;20060;-61
2022/11/11 23:12:29;;;;;;;299.15;21.65;;;;;;;5.67;70.38;101608.34;10280254;28;20116;-62
2022/11/11 23:17:31;;;;;;;173.85;16.83;;;;;;;5.82;70.41;101601.22;10287956;28;20393;-62
2022/11/11 23:22:33;;;;;;;170.27;18.65;;;;;;;5.92;70.06;101600.22;10273231;28;20054;-61
2022/11/11 23:27:35;;;;;;;191.93;21.08;;;;;;;5.95;70.18;101605.38;10277704;28;20513;-62
2022/11/11 23:32:37;;;;;;;138.73;15.68;;;;;;;6.00;69.86;101613.09;10276367;28;20061;-62
2022/11/11 23:37:38;;;;;;;205.55;17.75;;;;;;;5.98;69.53;101605.31;10282955;28;20058;-62
2022/11/11 23:42:40;;;;;;;172.68;15.95;;;;;;;5.83;70.13;101607.28;10271570;28;20343;-62
2022/11/11 23:47:41;;;;;;;242.10;18.35;;;;;;;5.85;69.86;101605.50;10271452;28;20039;-61
2022/11/11 23:52:43;;;;;;;231.65;17.05;;;;;;;5.82;69.86;101603.81;10272602;28;20443;-62
2022/11/11 23:57:45;;;;;;;193.73;15.05;;;;;;;5.84;69.96;101602.06;10271320;28;20049;-61
